METAR Data
IDs: Format: Raw Decoded Include TAF

Data at: 0149 UTC 20 Jul 2019

METAR for:KTVK (Centerville Muni, IA, US)
Text:KTVK 200135Z AUTO 18007KT 10SM CLR 30/27 A2980 RMK AO2
Temperature: 30.0°C ( 86°F)
Dewpoint: 27.0°C ( 81°F) [RH = 84%]
Pressure (altimeter):29.80 inches Hg (1009.2 mb)
Winds:from the S (180 degrees) at 8 MPH (7 knots; 3.6 m/s)
Visibility:10 or more sm (16+ km)
Ceiling:at least 12,000 feet AGL
Clouds:sky clear below 12,000 feet AGL
QC Flag:automated observation with no human augmentation